sensor_id;sensor_type;location;lat;lon;timestamp;P1;durP1;ratioP1;P2;durP2;ratioP2
26082;SDS011;13848;49.018;12.078;2022-10-22T00:02:24;15.48;;;10.25;;
26082;SDS011;13848;49.018;12.078;2022-10-22T00:04:50;18.60;;;10.73;;
26082;SDS011;13848;49.018;12.078;2022-10-22T00:07:17;16.15;;;11.10;;
26082;SDS011;13848;49.018;12.078;2022-10-22T00:09:44;16.77;;;10.90;;
26082;SDS011;13848;49.018;12.078;2022-10-22T00:12:11;21.60;;;11.43;;
26082;SDS011;13848;49.018;12.078;2022-10-22T00:14:37;15.30;;;10.32;;
26082;SDS011;13848;49.018;12.078;2022-10-22T00:17:03;17.00;;;10.95;;
26082;SDS011;13848;49.018;12.078;2022-10-22T00:19:29;16.20;;;10.82;;
26082;SDS011;13848;49.018;12.078;2022-10-22T00:21:55;20.73;;;11.70;;
26082;SDS011;13848;49.018;12.078;2022-10-22T00:24:23;19.02;;;10.93;;
26082;SDS011;13848;49.018;12.078;2022-10-22T00:26:49;16.23;;;11.20;;
26082;SDS011;13848;49.018;12.078;2022-10-22T00:29:15;18.60;;;11.27;;
26082;SDS011;13848;49.018;12.078;2022-10-22T00:31:41;18.77;;;10.95;;
26082;SDS011;13848;49.018;12.078;2022-10-22T00:34:07;21.17;;;10.93;;
26082;SDS011;13848;49.018;12.078;2022-10-22T00:36:33;19.95;;;11.38;;
26082;SDS011;13848;49.018;12.078;2022-10-22T00:38:59;16.95;;;11.45;;
26082;SDS011;13848;49.018;12.078;2022-10-22T00:41:26;18.25;;;11.40;;
26082;SDS011;13848;49.018;12.078;2022-10-22T00:43:56;21.17;;;11.68;;
26082;SDS011;13848;49.018;12.078;2022-10-22T00:46:23;22.38;;;12.05;;
26082;SDS011;13848;49.018;12.078;2022-10-22T00:48:49;17.63;;;11.63;;
26082;SDS011;13848;49.018;12.078;2022-10-22T00:51:16;21.23;;;11.60;;
26082;SDS011;13848;49.018;12.078;2022-10-22T00:53:46;17.13;;;11.38;;
26082;SDS011;13848;49.018;12.078;2022-10-22T00:56:15;17.98;;;10.65;;
26082;SDS011;13848;49.018;12.078;2022-10-22T00:58:44;19.95;;;11.02;;
26082;SDS011;13848;49.018;12.078;2022-10-22T01:01:15;17.98;;;11.40;;
26082;SDS011;13848;49.018;12.078;2022-10-22T01:03:45;23.98;;;11.65;;
26082;SDS011;13848;49.018;12.078;2022-10-22T01:06:11;19.00;;;11.70;;
26082;SDS011;13848;49.018;12.078;2022-10-22T01:11:16;16.83;;;10.57;;
26082;SDS011;13848;49.018;12.078;2022-10-22T01:13:52;17.25;;;11.65;;
26082;SDS011;13848;49.018;12.078;2022-10-22T01:16:30;19.58;;;11.23;;
26082;SDS011;13848;49.018;12.078;2022-10-22T01:19:04;15.10;;;10.40;;
26082;SDS011;13848;49.018;12.078;2022-10-22T01:21:40;18.90;;;11.77;;
26082;SDS011;13848;49.018;12.078;2022-10-22T01:24:14;23.85;;;11.90;;
26082;SDS011;13848;49.018;12.078;2022-10-22T01:26:59;21.00;;;11.85;;
26082;SDS011;13848;49.018;12.078;2022-10-22T01:29:38;19.30;;;11.70;;
26082;SDS011;13848;49.018;12.078;2022-10-22T01:32:09;16.83;;;11.88;;
26082;SDS011;13848;49.018;12.078;2022-10-22T01:34:40;17.13;;;11.55;;
26082;SDS011;13848;49.018;12.078;2022-10-22T01:37:11;18.00;;;12.07;;
26082;SDS011;13848;49.018;12.078;2022-10-22T01:39:39;19.60;;;12.23;;
26082;SDS011;13848;49.018;12.078;2022-10-22T01:42:08;16.27;;;11.40;;
26082;SDS011;13848;49.018;12.078;2022-10-22T01:44:38;17.88;;;12.15;;
26082;SDS011;13848;49.018;12.078;2022-10-22T01:47:07;19.10;;;12.10;;
26082;SDS011;13848;49.018;12.078;2022-10-22T01:49:45;19.38;;;11.73;;
26082;SDS011;13848;49.018;12.078;2022-10-22T01:52:25;18.50;;;12.10;;
26082;SDS011;13848;49.018;12.078;2022-10-22T01:55:06;20.83;;;12.27;;
26082;SDS011;13848;49.018;12.078;2022-10-22T01:57:40;17.50;;;11.75;;
26082;SDS011;13848;49.018;12.078;2022-10-22T02:00:13;20.55;;;12.15;;
26082;SDS011;13848;49.018;12.078;2022-10-22T02:02:42;19.80;;;12.45;;
26082;SDS011;13848;49.018;12.078;2022-10-22T02:05:15;20.60;;;12.18;;
26082;SDS011;13848;49.018;12.078;2022-10-22T02:07:47;17.02;;;11.23;;
26082;SDS011;13848;49.018;12.078;2022-10-22T02:10:16;22.20;;;12.23;;
26082;SDS011;13848;49.018;12.078;2022-10-22T02:12:44;18.90;;;12.00;;
26082;SDS011;13848;49.018;12.078;2022-10-22T02:15:14;16.88;;;11.98;;
26082;SDS011;13848;49.018;12.078;2022-10-22T02:17:42;17.15;;;11.52;;
26082;SDS011;13848;49.018;12.078;2022-10-22T02:20:12;17.63;;;11.52;;
26082;SDS011;13848;49.018;12.078;2022-10-22T02:22:42;18.25;;;12.73;;
26082;SDS011;13848;49.018;12.078;2022-10-22T02:25:08;21.75;;;12.90;;
26082;SDS011;13848;49.018;12.078;2022-10-22T02:27:37;18.05;;;12.15;;
26082;SDS011;13848;49.018;12.078;2022-10-22T02:30:09;20.90;;;12.35;;
26082;SDS011;13848;49.018;12.078;2022-10-22T02:32:39;19.58;;;12.55;;
26082;SDS011;13848;49.018;12.078;2022-10-22T02:35:09;19.08;;;12.40;;
26082;SDS011;13848;49.018;12.078;2022-10-22T02:37:38;21.08;;;12.40;;
26082;SDS011;13848;49.018;12.078;2022-10-22T02:40:05;18.05;;;12.18;;
26082;SDS011;13848;49.018;12.078;2022-10-22T02:42:31;19.83;;;12.93;;
26082;SDS011;13848;49.018;12.078;2022-10-22T02:44:59;20.65;;;11.95;;
26082;SDS011;13848;49.018;12.078;2022-10-22T02:47:25;22.27;;;12.73;;
26082;SDS011;13848;49.018;12.078;2022-10-22T02:49:52;18.80;;;12.20;;
26082;SDS011;13848;49.018;12.078;2022-10-22T02:52:18;17.45;;;11.93;;
26082;SDS011;13848;49.018;12.078;2022-10-22T02:54:44;18.35;;;11.90;;
26082;SDS011;13848;49.018;12.078;2022-10-22T02:57:10;22.33;;;12.52;;
26082;SDS011;13848;49.018;12.078;2022-10-22T02:59:36;18.38;;;12.73;;
26082;SDS011;13848;49.018;12.078;2022-10-22T03:02:02;18.65;;;12.40;;
26082;SDS011;13848;49.018;12.078;2022-10-22T03:04:28;20.38;;;12.52;;
26082;SDS011;13848;49.018;12.078;2022-10-22T03:06:55;17.48;;;12.38;;
26082;SDS011;13848;49.018;12.078;2022-10-22T03:09:21;19.58;;;12.90;;
26082;SDS011;13848;49.018;12.078;2022-10-22T03:11:47;20.42;;;12.85;;
26082;SDS011;13848;49.018;12.078;2022-10-22T03:14:13;18.52;;;12.30;;
26082;SDS011;13848;49.018;12.078;2022-10-22T03:16:39;20.15;;;13.25;;
26082;SDS011;13848;49.018;12.078;2022-10-22T03:19:05;18.67;;;12.75;;
26082;SDS011;13848;49.018;12.078;2022-10-22T03:21:33;20.30;;;13.23;;
26082;SDS011;13848;49.018;12.078;2022-10-22T03:24:06;23.00;;;13.30;;
26082;SDS011;13848;49.018;12.078;2022-10-22T03:26:36;19.48;;;12.93;;
26082;SDS011;13848;49.018;12.078;2022-10-22T03:29:04;22.58;;;13.18;;
26082;SDS011;13848;49.018;12.078;2022-10-22T03:31:30;23.63;;;13.07;;
26082;SDS011;13848;49.018;12.078;2022-10-22T03:33:56;20.20;;;13.52;;
26082;SDS011;13848;49.018;12.078;2022-10-22T03:36:22;19.17;;;13.13;;
26082;SDS011;13848;49.018;12.078;2022-10-22T03:38:48;23.85;;;13.20;;
26082;SDS011;13848;49.018;12.078;2022-10-22T03:41:15;22.92;;;14.05;;
26082;SDS011;13848;49.018;12.078;2022-10-22T03:43:42;21.30;;;13.70;;
26082;SDS011;13848;49.018;12.078;2022-10-22T03:46:08;23.38;;;13.80;;
26082;SDS011;13848;49.018;12.078;2022-10-22T03:48:34;21.05;;;13.35;;
26082;SDS011;13848;49.018;12.078;2022-10-22T03:50:59;21.35;;;13.07;;
26082;SDS011;13848;49.018;12.078;2022-10-22T03:53:26;21.10;;;12.65;;
26082;SDS011;13848;49.018;12.078;2022-10-22T03:55:52;22.42;;;14.13;;
26082;SDS011;13848;49.018;12.078;2022-10-22T03:58:20;27.77;;;15.13;;
26082;SDS011;13848;49.018;12.078;2022-10-22T04:00:46;22.33;;;14.38;;
26082;SDS011;13848;49.018;12.078;2022-10-22T04:03:12;24.65;;;14.30;;
26082;SDS011;13848;49.018;12.078;2022-10-22T04:05:37;21.70;;;12.93;;
26082;SDS011;13848;49.018;12.078;2022-10-22T04:08:03;20.60;;;12.90;;
26082;SDS011;13848;49.018;12.078;2022-10-22T04:10:29;21.60;;;13.60;;
26082;SDS011;13848;49.018;12.078;2022-10-22T04:12:55;21.98;;;12.95;;
26082;SDS011;13848;49.018;12.078;2022-10-22T04:15:23;19.08;;;13.07;;
26082;SDS011;13848;49.018;12.078;2022-10-22T04:17:49;18.83;;;12.75;;
26082;SDS011;13848;49.018;12.078;2022-10-22T04:20:15;24.98;;;13.18;;
26082;SDS011;13848;49.018;12.078;2022-10-22T04:22:41;19.20;;;13.10;;
26082;SDS011;13848;49.018;12.078;2022-10-22T04:25:07;20.67;;;13.23;;
26082;SDS011;13848;49.018;12.078;2022-10-22T04:27:33;21.05;;;12.65;;
26082;SDS011;13848;49.018;12.078;2022-10-22T04:30:00;20.40;;;12.85;;
26082;SDS011;13848;49.018;12.078;2022-10-22T04:32:27;19.63;;;12.93;;
26082;SDS011;13848;49.018;12.078;2022-10-22T04:34:53;19.65;;;12.65;;
26082;SDS011;13848;49.018;12.078;2022-10-22T04:37:19;18.20;;;12.60;;
26082;SDS011;13848;49.018;12.078;2022-10-22T04:39:46;21.00;;;13.35;;
26082;SDS011;13848;49.018;12.078;2022-10-22T04:42:12;19.77;;;13.27;;
26082;SDS011;13848;49.018;12.078;2022-10-22T04:44:38;20.30;;;12.90;;
26082;SDS011;13848;49.018;12.078;2022-10-22T04:47:04;20.65;;;12.95;;
26082;SDS011;13848;49.018;12.078;2022-10-22T04:49:31;18.17;;;12.40;;
26082;SDS011;13848;49.018;12.078;2022-10-22T04:51:57;18.85;;;12.10;;
26082;SDS011;13848;49.018;12.078;2022-10-22T04:54:23;22.42;;;13.25;;
26082;SDS011;13848;49.018;12.078;2022-10-22T04:56:49;20.88;;;12.18;;
26082;SDS011;13848;49.018;12.078;2022-10-22T04:59:15;19.90;;;11.65;;
26082;SDS011;13848;49.018;12.078;2022-10-22T05:01:42;20.95;;;12.65;;
26082;SDS011;13848;49.018;12.078;2022-10-22T05:04:10;19.60;;;12.32;;
26082;SDS011;13848;49.018;12.078;2022-10-22T05:06:38;17.98;;;12.10;;
26082;SDS011;13848;49.018;12.078;2022-10-22T05:09:05;18.02;;;12.02;;
26082;SDS011;13848;49.018;12.078;2022-10-22T05:11:33;18.98;;;12.07;;
26082;SDS011;13848;49.018;12.078;2022-10-22T05:14:01;21.55;;;12.30;;
26082;SDS011;13848;49.018;12.078;2022-10-22T05:16:29;19.20;;;11.75;;
26082;SDS011;13848;49.018;12.078;2022-10-22T05:18:56;19.27;;;12.13;;
26082;SDS011;13848;49.018;12.078;2022-10-22T05:21:23;22.35;;;12.45;;
26082;SDS011;13848;49.018;12.078;2022-10-22T05:23:50;21.42;;;12.40;;
26082;SDS011;13848;49.018;12.078;2022-10-22T05:26:17;20.55;;;12.65;;
26082;SDS011;13848;49.018;12.078;2022-10-22T05:28:44;19.33;;;11.88;;
26082;SDS011;13848;49.018;12.078;2022-10-22T05:31:11;19.95;;;12.38;;
26082;SDS011;13848;49.018;12.078;2022-10-22T05:33:38;21.83;;;12.48;;
26082;SDS011;13848;49.018;12.078;2022-10-22T05:36:06;20.25;;;12.07;;
26082;SDS011;13848;49.018;12.078;2022-10-22T05:38:33;16.67;;;11.30;;
26082;SDS011;13848;49.018;12.078;2022-10-22T05:41:01;20.38;;;11.60;;
26082;SDS011;13848;49.018;12.078;2022-10-22T05:43:29;18.67;;;12.02;;
26082;SDS011;13848;49.018;12.078;2022-10-22T05:45:55;18.95;;;12.20;;
26082;SDS011;13848;49.018;12.078;2022-10-22T05:48:21;19.17;;;11.73;;
26082;SDS011;13848;49.018;12.078;2022-10-22T05:50:47;19.40;;;12.35;;
26082;SDS011;13848;49.018;12.078;2022-10-22T05:53:13;22.23;;;12.35;;
26082;SDS011;13848;49.018;12.078;2022-10-22T05:55:39;17.27;;;11.50;;
26082;SDS011;13848;49.018;12.078;2022-10-22T05:58:06;20.90;;;11.80;;
26082;SDS011;13848;49.018;12.078;2022-10-22T06:00:33;16.98;;;11.48;;
26082;SDS011;13848;49.018;12.078;2022-10-22T06:02:59;21.73;;;12.13;;
26082;SDS011;13848;49.018;12.078;2022-10-22T06:05:25;19.27;;;11.65;;
26082;SDS011;13848;49.018;12.078;2022-10-22T06:07:51;21.85;;;11.90;;
26082;SDS011;13848;49.018;12.078;2022-10-22T06:10:18;18.80;;;11.85;;
26082;SDS011;13848;49.018;12.078;2022-10-22T06:12:45;18.73;;;11.20;;
26082;SDS011;13848;49.018;12.078;2022-10-22T06:15:14;18.50;;;11.48;;
26082;SDS011;13848;49.018;12.078;2022-10-22T06:17:42;19.75;;;12.23;;
26082;SDS011;13848;49.018;12.078;2022-10-22T06:20:09;18.77;;;12.55;;
26082;SDS011;13848;49.018;12.078;2022-10-22T06:22:36;17.42;;;11.35;;
26082;SDS011;13848;49.018;12.078;2022-10-22T06:25:02;24.35;;;13.18;;
26082;SDS011;13848;49.018;12.078;2022-10-22T06:27:28;20.27;;;12.50;;
26082;SDS011;13848;49.018;12.078;2022-10-22T06:29:54;21.13;;;12.55;;
26082;SDS011;13848;49.018;12.078;2022-10-22T06:32:22;18.60;;;11.55;;
26082;SDS011;13848;49.018;12.078;2022-10-22T06:34:48;22.35;;;13.27;;
26082;SDS011;13848;49.018;12.078;2022-10-22T06:37:14;21.75;;;13.05;;
26082;SDS011;13848;49.018;12.078;2022-10-22T06:39:40;21.73;;;12.60;;
26082;SDS011;13848;49.018;12.078;2022-10-22T06:42:05;25.65;;;14.93;;
26082;SDS011;13848;49.018;12.078;2022-10-22T06:44:31;21.00;;;13.77;;
26082;SDS011;13848;49.018;12.078;2022-10-22T06:46:57;18.90;;;13.07;;
26082;SDS011;13848;49.018;12.078;2022-10-22T06:49:25;21.73;;;13.27;;
26082;SDS011;13848;49.018;12.078;2022-10-22T06:51:51;18.58;;;12.45;;
26082;SDS011;13848;49.018;12.078;2022-10-22T06:54:18;21.15;;;12.25;;
26082;SDS011;13848;49.018;12.078;2022-10-22T06:56:44;17.77;;;12.00;;
26082;SDS011;13848;49.018;12.078;2022-10-22T06:59:10;16.98;;;11.95;;
26082;SDS011;13848;49.018;12.078;2022-10-22T07:01:36;16.92;;;11.82;;
26082;SDS011;13848;49.018;12.078;2022-10-22T07:04:03;21.85;;;12.52;;
26082;SDS011;13848;49.018;12.078;2022-10-22T07:06:31;20.70;;;11.85;;
26082;SDS011;13848;49.018;12.078;2022-10-22T07:08:57;20.77;;;11.43;;
26082;SDS011;13848;49.018;12.078;2022-10-22T07:11:25;19.75;;;11.70;;
26082;SDS011;13848;49.018;12.078;2022-10-22T07:13:52;19.75;;;11.63;;
26082;SDS011;13848;49.018;12.078;2022-10-22T07:16:19;17.52;;;11.55;;
26082;SDS011;13848;49.018;12.078;2022-10-22T07:18:46;18.00;;;11.65;;
26082;SDS011;13848;49.018;12.078;2022-10-22T07:21:13;18.15;;;12.00;;
26082;SDS011;13848;49.018;12.078;2022-10-22T07:23:42;16.58;;;11.05;;
26082;SDS011;13848;49.018;12.078;2022-10-22T07:26:10;17.13;;;11.18;;
26082;SDS011;13848;49.018;12.078;2022-10-22T07:28:37;16.55;;;11.18;;
26082;SDS011;13848;49.018;12.078;2022-10-22T07:31:03;14.20;;;9.82;;
26082;SDS011;13848;49.018;12.078;2022-10-22T07:33:29;15.18;;;8.48;;
26082;SDS011;13848;49.018;12.078;2022-10-22T07:35:56;13.52;;;9.68;;
26082;SDS011;13848;49.018;12.078;2022-10-22T07:38:22;8.77;;;5.65;;
26082;SDS011;13848;49.018;12.078;2022-10-22T07:40:50;6.72;;;4.65;;
26082;SDS011;13848;49.018;12.078;2022-10-22T07:43:16;6.63;;;4.47;;
26082;SDS011;13848;49.018;12.078;2022-10-22T07:45:42;6.30;;;4.30;;
26082;SDS011;13848;49.018;12.078;2022-10-22T07:48:08;6.28;;;4.50;;
26082;SDS011;13848;49.018;12.078;2022-10-22T07:50:34;5.75;;;4.28;;
26082;SDS011;13848;49.018;12.078;2022-10-22T07:52:59;5.30;;;3.97;;
26082;SDS011;13848;49.018;12.078;2022-10-22T07:55:25;6.28;;;3.90;;
26082;SDS011;13848;49.018;12.078;2022-10-22T07:57:53;5.30;;;3.60;;
26082;SDS011;13848;49.018;12.078;2022-10-22T08:00:19;4.40;;;3.20;;
26082;SDS011;13848;49.018;12.078;2022-10-22T08:02:45;4.05;;;3.53;;
26082;SDS011;13848;49.018;12.078;2022-10-22T08:05:11;6.78;;;3.65;;
26082;SDS011;13848;49.018;12.078;2022-10-22T08:07:37;4.70;;;3.35;;
26082;SDS011;13848;49.018;12.078;2022-10-22T08:10:03;4.05;;;3.00;;
26082;SDS011;13848;49.018;12.078;2022-10-22T08:12:30;5.50;;;3.30;;
26082;SDS011;13848;49.018;12.078;2022-10-22T08:14:57;5.63;;;3.67;;
26082;SDS011;13848;49.018;12.078;2022-10-22T08:17:23;4.97;;;3.15;;
26082;SDS011;13848;49.018;12.078;2022-10-22T08:19:49;4.00;;;3.30;;
26082;SDS011;13848;49.018;12.078;2022-10-22T08:22:15;4.20;;;3.30;;
26082;SDS011;13848;49.018;12.078;2022-10-22T08:24:41;4.03;;;3.50;;
26082;SDS011;13848;49.018;12.078;2022-10-22T08:27:07;5.00;;;3.58;;
26082;SDS011;13848;49.018;12.078;2022-10-22T08:29:33;4.80;;;3.78;;
26082;SDS011;13848;49.018;12.078;2022-10-22T08:32:01;4.28;;;3.38;;
26082;SDS011;13848;49.018;12.078;2022-10-22T08:34:27;4.50;;;3.70;;
26082;SDS011;13848;49.018;12.078;2022-10-22T08:36:53;4.50;;;3.65;;
26082;SDS011;13848;49.018;12.078;2022-10-22T08:39:19;4.22;;;3.55;;
26082;SDS011;13848;49.018;12.078;2022-10-22T08:41:47;6.30;;;3.55;;
26082;SDS011;13848;49.018;12.078;2022-10-22T08:44:33;4.32;;;3.17;;
26082;SDS011;13848;49.018;12.078;2022-10-22T08:47:20;5.72;;;3.30;;
26082;SDS011;13848;49.018;12.078;2022-10-22T08:49:59;4.35;;;3.20;;
26082;SDS011;13848;49.018;12.078;2022-10-22T08:52:26;7.00;;;3.10;;
26082;SDS011;13848;49.018;12.078;2022-10-22T08:54:52;7.53;;;3.70;;
26082;SDS011;13848;49.018;12.078;2022-10-22T08:57:36;3.88;;;3.08;;
26082;SDS011;13848;49.018;12.078;2022-10-22T09:00:11;4.53;;;3.20;;
26082;SDS011;13848;49.018;12.078;2022-10-22T09:02:45;4.05;;;3.03;;
26082;SDS011;13848;49.018;12.078;2022-10-22T09:05:27;5.32;;;3.25;;
26082;SDS011;13848;49.018;12.078;2022-10-22T09:08:00;5.53;;;3.13;;
26082;SDS011;13848;49.018;12.078;2022-10-22T09:10:28;5.60;;;2.75;;
26082;SDS011;13848;49.018;12.078;2022-10-22T09:12:58;5.47;;;2.60;;
26082;SDS011;13848;49.018;12.078;2022-10-22T09:15:24;5.93;;;2.65;;
26082;SDS011;13848;49.018;12.078;2022-10-22T09:17:55;3.78;;;2.40;;
26082;SDS011;13848;49.018;12.078;2022-10-22T09:20:32;5.22;;;2.42;;
26082;SDS011;13848;49.018;12.078;2022-10-22T09:23:11;3.72;;;2.70;;
26082;SDS011;13848;49.018;12.078;2022-10-22T09:25:48;3.95;;;2.50;;
26082;SDS011;13848;49.018;12.078;2022-10-22T09:28:15;3.90;;;3.08;;
26082;SDS011;13848;49.018;12.078;2022-10-22T09:30:42;5.03;;;3.05;;
26082;SDS011;13848;49.018;12.078;2022-10-22T09:33:11;2.90;;;2.50;;
26082;SDS011;13848;49.018;12.078;2022-10-22T09:35:44;4.50;;;2.50;;
26082;SDS011;13848;49.018;12.078;2022-10-22T09:38:12;3.30;;;2.25;;
26082;SDS011;13848;49.018;12.078;2022-10-22T09:40:41;4.93;;;2.90;;
26082;SDS011;13848;49.018;12.078;2022-10-22T09:43:09;3.55;;;2.58;;
26082;SDS011;13848;49.018;12.078;2022-10-22T09:45:36;4.55;;;2.67;;
26082;SDS011;13848;49.018;12.078;2022-10-22T09:48:07;3.17;;;2.40;;
26082;SDS011;13848;49.018;12.078;2022-10-22T09:50:42;4.80;;;2.10;;
26082;SDS011;13848;49.018;12.078;2022-10-22T09:53:11;4.20;;;2.20;;
26082;SDS011;13848;49.018;12.078;2022-10-22T09:55:39;4.18;;;2.00;;
26082;SDS011;13848;49.018;12.078;2022-10-22T09:58:07;2.70;;;1.80;;
26082;SDS011;13848;49.018;12.078;2022-10-22T10:00:37;4.07;;;1.95;;
26082;SDS011;13848;49.018;12.078;2022-10-22T10:03:04;2.58;;;2.00;;
26082;SDS011;13848;49.018;12.078;2022-10-22T10:05:32;1.92;;;1.60;;
26082;SDS011;13848;49.018;12.078;2022-10-22T10:08:01;3.03;;;1.98;;
26082;SDS011;13848;49.018;12.078;2022-10-22T10:10:39;2.35;;;1.58;;
26082;SDS011;13848;49.018;12.078;2022-10-22T10:16:07;2.30;;;1.70;;
26082;SDS011;13848;49.018;12.078;2022-10-22T10:18:44;2.38;;;1.80;;
26082;SDS011;13848;49.018;12.078;2022-10-22T10:21:21;2.75;;;2.08;;
26082;SDS011;13848;49.018;12.078;2022-10-22T10:23:56;7.07;;;2.83;;
26082;SDS011;13848;49.018;12.078;2022-10-22T10:26:29;2.55;;;1.70;;
26082;SDS011;13848;49.018;12.078;2022-10-22T10:29:05;7.20;;;3.58;;
26082;SDS011;13848;49.018;12.078;2022-10-22T10:31:43;6.70;;;3.95;;
26082;SDS011;13848;49.018;12.078;2022-10-22T10:34:19;5.47;;;2.33;;
26082;SDS011;13848;49.018;12.078;2022-10-22T10:36:57;3.28;;;1.17;;
26082;SDS011;13848;49.018;12.078;2022-10-22T10:39:29;2.65;;;1.05;;
26082;SDS011;13848;49.018;12.078;2022-10-22T10:42:05;5.15;;;1.38;;
26082;SDS011;13848;49.018;12.078;2022-10-22T10:44:43;3.35;;;1.20;;
26082;SDS011;13848;49.018;12.078;2022-10-22T10:47:19;4.72;;;1.30;;
26082;SDS011;13848;49.018;12.078;2022-10-22T10:50:12;1.55;;;1.17;;
26082;SDS011;13848;49.018;12.078;2022-10-22T10:52:47;4.25;;;1.40;;
26082;SDS011;13848;49.018;12.078;2022-10-22T10:55:21;1.83;;;1.20;;
26082;SDS011;13848;49.018;12.078;2022-10-22T10:57:54;7.35;;;1.40;;
26082;SDS011;13848;49.018;12.078;2022-10-22T11:00:27;3.30;;;1.40;;
26082;SDS011;13848;49.018;12.078;2022-10-22T11:03:07;3.05;;;1.30;;
26082;SDS011;13848;49.018;12.078;2022-10-22T11:05:57;3.53;;;1.02;;
26082;SDS011;13848;49.018;12.078;2022-10-22T11:08:29;3.33;;;1.55;;
26082;SDS011;13848;49.018;12.078;2022-10-22T11:10:58;2.40;;;1.20;;
26082;SDS011;13848;49.018;12.078;2022-10-22T11:13:27;2.65;;;1.20;;
26082;SDS011;13848;49.018;12.078;2022-10-22T11:15:58;5.85;;;1.58;;
26082;SDS011;13848;49.018;12.078;2022-10-22T11:18:31;3.53;;;1.83;;
26082;SDS011;13848;49.018;12.078;2022-10-22T11:23:45;0.80;;;0.80;;
26082;SDS011;13848;49.018;12.078;2022-10-22T11:26:18;2.80;;;0.80;;
26082;SDS011;13848;49.018;12.078;2022-10-22T11:28:52;0.98;;;0.80;;
26082;SDS011;13848;49.018;12.078;2022-10-22T11:31:19;2.33;;;0.80;;
26082;SDS011;13848;49.018;12.078;2022-10-22T11:33:50;1.20;;;0.85;;
26082;SDS011;13848;49.018;12.078;2022-10-22T11:36:20;2.22;;;1.10;;
26082;SDS011;13848;49.018;12.078;2022-10-22T11:38:49;1.33;;;0.90;;
26082;SDS011;13848;49.018;12.078;2022-10-22T11:41:16;1.73;;;1.20;;
26082;SDS011;13848;49.018;12.078;2022-10-22T11:43:57;1.33;;;1.02;;
26082;SDS011;13848;49.018;12.078;2022-10-22T11:46:42;1.20;;;0.82;;
26082;SDS011;13848;49.018;12.078;2022-10-22T11:52:21;0.82;;;0.65;;
26082;SDS011;13848;49.018;12.078;2022-10-22T11:54:51;2.20;;;0.90;;
26082;SDS011;13848;49.018;12.078;2022-10-22T11:57:20;2.13;;;0.95;;
26082;SDS011;13848;49.018;12.078;2022-10-22T11:59:51;1.33;;;0.90;;
26082;SDS011;13848;49.018;12.078;2022-10-22T12:08:17;1.42;;;0.90;;
26082;SDS011;13848;49.018;12.078;2022-10-22T12:14:00;4.30;;;1.85;;
26082;SDS011;13848;49.018;12.078;2022-10-22T12:16:37;1.30;;;1.00;;
26082;SDS011;13848;49.018;12.078;2022-10-22T12:19:06;1.95;;;0.95;;
26082;SDS011;13848;49.018;12.078;2022-10-22T12:21:38;1.10;;;0.80;;
26082;SDS011;13848;49.018;12.078;2022-10-22T12:24:05;3.63;;;0.73;;
26082;SDS011;13848;49.018;12.078;2022-10-22T12:26:36;2.65;;;0.80;;
26082;SDS011;13848;49.018;12.078;2022-10-22T12:29:08;0.60;;;0.60;;
26082;SDS011;13848;49.018;12.078;2022-10-22T12:31:36;2.45;;;0.70;;
26082;SDS011;13848;49.018;12.078;2022-10-22T12:34:04;5.40;;;0.70;;
26082;SDS011;13848;49.018;12.078;2022-10-22T12:36:30;2.05;;;0.70;;
26082;SDS011;13848;49.018;12.078;2022-10-22T12:38:59;1.25;;;0.60;;
26082;SDS011;13848;49.018;12.078;2022-10-22T12:41:29;0.80;;;0.60;;
26082;SDS011;13848;49.018;12.078;2022-10-22T12:43:58;0.85;;;0.60;;
26082;SDS011;13848;49.018;12.078;2022-10-22T12:46:24;0.80;;;0.70;;
26082;SDS011;13848;49.018;12.078;2022-10-22T12:48:51;2.13;;;0.80;;
26082;SDS011;13848;49.018;12.078;2022-10-22T12:51:18;0.68;;;0.68;;
26082;SDS011;13848;49.018;12.078;2022-10-22T12:53:45;4.65;;;2.58;;
26082;SDS011;13848;49.018;12.078;2022-10-22T12:56:14;2.22;;;1.13;;
26082;SDS011;13848;49.018;12.078;2022-10-22T13:01:14;1.83;;;0.90;;
26082;SDS011;13848;49.018;12.078;2022-10-22T13:03:42;1.80;;;0.88;;
26082;SDS011;13848;49.018;12.078;2022-10-22T13:06:10;0.60;;;0.50;;
26082;SDS011;13848;49.018;12.078;2022-10-22T13:08:37;3.13;;;0.90;;
26082;SDS011;13848;49.018;12.078;2022-10-22T13:11:05;1.83;;;0.65;;
26082;SDS011;13848;49.018;12.078;2022-10-22T13:13:39;0.80;;;0.80;;
26082;SDS011;13848;49.018;12.078;2022-10-22T13:16:18;1.13;;;0.82;;
26082;SDS011;13848;49.018;12.078;2022-10-22T13:18:46;1.65;;;0.90;;
26082;SDS011;13848;49.018;12.078;2022-10-22T13:21:23;3.33;;;1.00;;
26082;SDS011;13848;49.018;12.078;2022-10-22T13:23:54;1.85;;;1.10;;
26082;SDS011;13848;49.018;12.078;2022-10-22T13:26:23;0.95;;;0.80;;
26082;SDS011;13848;49.018;12.078;2022-10-22T13:28:55;1.95;;;0.73;;
26082;SDS011;13848;49.018;12.078;2022-10-22T13:31:24;2.88;;;0.60;;
26082;SDS011;13848;49.018;12.078;2022-10-22T13:33:52;2.22;;;0.80;;
26082;SDS011;13848;49.018;12.078;2022-10-22T13:36:21;2.05;;;0.90;;
26082;SDS011;13848;49.018;12.078;2022-10-22T13:38:48;0.88;;;0.70;;
26082;SDS011;13848;49.018;12.078;2022-10-22T13:41:17;0.68;;;0.63;;
26082;SDS011;13848;49.018;12.078;2022-10-22T13:43:44;1.63;;;0.75;;
26082;SDS011;13848;49.018;12.078;2022-10-22T13:46:10;2.60;;;0.73;;
26082;SDS011;13848;49.018;12.078;2022-10-22T13:48:37;4.15;;;0.73;;
26082;SDS011;13848;49.018;12.078;2022-10-22T13:51:05;0.77;;;0.73;;
26082;SDS011;13848;49.018;12.078;2022-10-22T13:53:38;1.27;;;0.70;;
26082;SDS011;13848;49.018;12.078;2022-10-22T13:56:04;0.93;;;0.75;;
26082;SDS011;13848;49.018;12.078;2022-10-22T13:58:30;0.80;;;0.80;;
26082;SDS011;13848;49.018;12.078;2022-10-22T14:00:56;1.27;;;0.40;;
26082;SDS011;13848;49.018;12.078;2022-10-22T14:03:25;1.23;;;1.02;;
26082;SDS011;13848;49.018;12.078;2022-10-22T14:05:54;1.17;;;0.82;;
26082;SDS011;13848;49.018;12.078;2022-10-22T14:08:21;1.65;;;1.00;;
26082;SDS011;13848;49.018;12.078;2022-10-22T14:10:49;3.78;;;1.40;;
26082;SDS011;13848;49.018;12.078;2022-10-22T14:13:15;1.38;;;0.68;;
26082;SDS011;13848;49.018;12.078;2022-10-22T14:15:42;1.17;;;0.80;;
26082;SDS011;13848;49.018;12.078;2022-10-22T14:18:11;2.20;;;0.80;;
26082;SDS011;13848;49.018;12.078;2022-10-22T14:20:41;0.98;;;0.80;;
26082;SDS011;13848;49.018;12.078;2022-10-22T14:23:12;1.77;;;0.77;;
26082;SDS011;13848;49.018;12.078;2022-10-22T14:25:42;2.92;;;0.80;;
26082;SDS011;13848;49.018;12.078;2022-10-22T14:28:08;0.98;;;0.80;;
26082;SDS011;13848;49.018;12.078;2022-10-22T14:30:35;5.55;;;0.70;;
26082;SDS011;13848;49.018;12.078;2022-10-22T14:33:05;0.90;;;0.77;;
26082;SDS011;13848;49.018;12.078;2022-10-22T14:35:38;2.17;;;0.70;;
26082;SDS011;13848;49.018;12.078;2022-10-22T14:38:04;1.48;;;0.85;;
26082;SDS011;13848;49.018;12.078;2022-10-22T14:40:31;0.93;;;0.70;;
26082;SDS011;13848;49.018;12.078;2022-10-22T14:42:57;1.08;;;0.75;;
26082;SDS011;13848;49.018;12.078;2022-10-22T14:45:24;0.88;;;0.60;;
26082;SDS011;13848;49.018;12.078;2022-10-22T14:47:51;1.70;;;0.80;;
26082;SDS011;13848;49.018;12.078;2022-10-22T14:50:18;0.75;;;0.75;;
26082;SDS011;13848;49.018;12.078;2022-10-22T14:52:44;1.15;;;0.70;;
26082;SDS011;13848;49.018;12.078;2022-10-22T14:55:10;2.38;;;1.63;;